WetterOnline ( http://www.wetteronline.de )

Wetter aktuell Bad Berleburg

Aktuelles Wetter: Kahler Asten (841m)

6-stündlich | Neueste Meldungen
Ortszeit Temperatur Wetter
Mi, 26.09. 8:00 4.8° C wolkig
Mi, 26.09. 2:00 4.6° C fast wolkenlos
Di, 25.09. 20:00 6.1° C wolkig
Di, 25.09. 14:00 7.5° C wolkig
Di, 25.09. 8:00 2.2° C Nebel
Di, 25.09. 2:00 3.2° C Nebel
Mo, 24.09. 20:00 4.3° C bewölkt
Mo, 24.09. 14:00 6.9° C bewölkt
Ortszeit Temperatur Wetter
Mi, 26.09. 12:00 9.2° C wolkenlos
Mi, 26.09. 11:50 9.2° C wolkenlos
Mi, 26.09. 11:40 8.9° C leicht bewölkt
Mi, 26.09. 11:30 8.2° C wolkig
Mi, 26.09. 11:20 8.2° C wolkig
Mi, 26.09. 11:10 7.7° C wolkig
Mi, 26.09. 11:00 7.2° C leicht bewölkt
Mi, 26.09. 10:30 6.4° C bewölkt
Mi, 26.09. 10:00 5.4° C bedeckt
Mi, 26.09. 9:30 5.1° C bedeckt
Mi, 26.09. 9:00 4.9° C wolkig
Ortszeit Relative Feuchte Sichtweite
Mi, 26.09. 8:00 60% 70 km
Mi, 26.09. 2:00 71% 70 km
Di, 25.09. 20:00 70% 70 km
Di, 25.09. 14:00 62% 70 km
Di, 25.09. 8:00 98% 0.3 km
Di, 25.09. 2:00 97% 0.3 km
Mo, 24.09. 20:00 92% 45 km
Mo, 24.09. 14:00 75% 40 km
Ortszeit Relative Feuchte Sichtweite
Mi, 26.09. 12:00 49% 40 km
Mi, 26.09. 11:50 49% -
Mi, 26.09. 11:40 49% -
Mi, 26.09. 11:30 52% 35 km
Mi, 26.09. 11:20 52% -
Mi, 26.09. 11:10 54% -
Mi, 26.09. 11:00 55% 40 km
Mi, 26.09. 10:30 59% 30 km
Mi, 26.09. 10:00 60% 55 km
Mi, 26.09. 9:30 61% 60 km
Mi, 26.09. 9:00 60% 55 km
Ortszeit Niederschlagsmenge Niederschlagsart
Mi, 26.09. 8:00 0.0 l/m2 in 12 Std. -
Mi, 26.09. 2:00 0.0 l/m2 in 6 Std. -
Di, 25.09. 20:00 0.0 l/m2 in 12 Std. -
Di, 25.09. 14:00 0.0 l/m2 in 6 Std. -
Di, 25.09. 8:00 0.7 l/m2 in 12 Std. -
Di, 25.09. 2:00 0.7 l/m2 in 6 Std. Regen
Mo, 24.09. 20:00 0.2 l/m2 in 12 Std. Regen
Mo, 24.09. 14:00 0.1 l/m2 in 6 Std. Regen
Ortszeit Niederschlagsmenge Niederschlagsart
Mi, 26.09. 12:00 0.0 l/m2 in 1 Std. -
Mi, 26.09. 11:50 keine Meldung -
Mi, 26.09. 11:40 keine Meldung -
Mi, 26.09. 11:30 0.0 l/m2 in 1 Std. -
Mi, 26.09. 11:20 keine Meldung -
Mi, 26.09. 11:10 keine Meldung -
Mi, 26.09. 11:00 0.0 l/m2 in 1 Std. -
Mi, 26.09. 10:30 0.0 l/m2 in 1 Std. -
Mi, 26.09. 10:00 0.0 l/m2 in 1 Std. -
Mi, 26.09. 9:30 0.0 l/m2 in 1 Std. -
Mi, 26.09. 9:00 0.0 l/m2 in 1 Std. -
Ortszeit Stärke Spitze Richtung
km/h Bft. km/h Grad Sektor
Mi, 26.09. 8:00 31 5 43 190° S
Mi, 26.09. 2:00 25 4 36 170° S
Di, 25.09. 20:00 14 3 18 120° SO
Di, 25.09. 14:00 6 1 20 360° N
Di, 25.09. 8:00 17 3 26 340° N
Di, 25.09. 2:00 14 3 50 310° NW
Mo, 24.09. 20:00 25 4 65 320° NW
Mo, 24.09. 14:00 30 5 57 290° W
Ortszeit Stärke Spitze Richtung
km/h Bft. km/h Grad Sektor
Mi, 26.09. 12:00 18 3 32 220° SW
Mi, 26.09. 11:50 18 3 - 220° SW
Mi, 26.09. 11:40 18 3 - 220° SW
Mi, 26.09. 11:30 19 3 33 210° SW
Mi, 26.09. 11:20 19 3 - 210° SW
Mi, 26.09. 11:10 22 4 - 210° SW
Mi, 26.09. 11:00 26 4 37 210° SW
Mi, 26.09. 10:30 28 4 37 210° SW
Mi, 26.09. 10:00 31 5 43 210° SW
Mi, 26.09. 9:30 30 5 41 210° SW
Mi, 26.09. 9:00 28 4 39 200° S
Ortszeit Untergrenze Bedeckung Gattung
total tief tief mittel hoch
Mi, 26.09. 8:00 6300 m 8/8 3/8 - - -
Mi, 26.09. 2:00 10500 m 1/8 0/8 - - -
Di, 25.09. 20:00 1140 m 6/8 6/8 - - -
Di, 25.09. 14:00 990 m 6/8 6/8 - - -
Di, 25.09. 8:00 30 m 8/8 3/8 - - -
Di, 25.09. 2:00 30 m 7/8 7/8 - - -
Mo, 24.09. 20:00 60 m 7/8 7/8 - - -
Mo, 24.09. 14:00 510 m 7/8 7/8 - - -
Ortszeit Bedeckungsgrad in Achtel und Wolkenuntergrenze
Mi, 26.09. 12:00 keine Wolken
Mi, 26.09. 11:50 keine Wolken
Mi, 26.09. 11:40 2(7500m) 3(9000m)
Mi, 26.09. 11:30 8(7500m)
Mi, 26.09. 11:20 8(7500m)
Mi, 26.09. 11:10 8(7500m)
Mi, 26.09. 11:00 8(7200m)
Mi, 26.09. 10:30 6(6300m) 7(6900m)
Mi, 26.09. 10:00 8(6300m) 8(6900m)
Mi, 26.09. 9:30 8(6000m)
Mi, 26.09. 9:00 2(6300m) 5(8700m) 7(12000m)
Ortszeit Stationsdruck (hPa) Tendenz (hPa in 3 Std.)
Mi, 26.09. 8:00 933 - 0,5
Mi, 26.09. 2:00 935 - 1,3
Di, 25.09. 20:00 936 0,0
Di, 25.09. 14:00 937 + 0,6
Di, 25.09. 8:00 935 + 0,5
Di, 25.09. 2:00 934 + 1,1
Mo, 24.09. 20:00 932 + 1,0
Mo, 24.09. 14:00 931 + 0,9
Ortszeit Stationsdruck (hPa) Tendenz (hPa in 3 Std.)
Mi, 26.09. 12:00 933 + 0,1
Mi, 26.09. 11:50 933 keine Meldung
Mi, 26.09. 11:40 934 keine Meldung
Mi, 26.09. 11:30 934 + 0,2
Mi, 26.09. 11:20 934 keine Meldung
Mi, 26.09. 11:10 933 keine Meldung
Mi, 26.09. 11:00 933 + 0,3
Mi, 26.09. 10:30 934 + 0,2
Mi, 26.09. 10:00 933 - 0,1
Mi, 26.09. 9:30 933 - 0,1
Mi, 26.09. 9:00 933 - 0,1
Ortszeit Schneehöhe (cm)
Mi, 26.09. 8:00 -
Mi, 26.09. 2:00 -
Di, 25.09. 20:00 -
Di, 25.09. 14:00 -
Di, 25.09. 8:00 -
Di, 25.09. 2:00 -
Mo, 24.09. 20:00 -
Mo, 24.09. 14:00 -
Ortszeit Schneehöhe (cm)
Mi, 26.09. 12:00 -
Mi, 26.09. 11:50 -
Mi, 26.09. 11:40 -
Mi, 26.09. 11:30 -
Mi, 26.09. 11:20 -
Mi, 26.09. 11:10 -
Mi, 26.09. 11:00 -
Mi, 26.09. 10:30 -
Mi, 26.09. 10:00 -
Mi, 26.09. 9:30 -
Mi, 26.09. 9:00 -
Link zu dieser Seite / Seite empfehlen

Das Wetter in ...